createdAt,value
2022-08-04T00:02:02.022Z,29.18
2022-08-04T00:04:52.303Z,29.19
2022-08-04T00:07:44.077Z,29.11
2022-08-04T00:10:17.206Z,28.99
2022-08-04T00:12:51.505Z,28.91
2022-08-04T00:15:20.555Z,28.84
2022-08-04T00:17:59.610Z,28.78
2022-08-04T00:20:32.687Z,28.72
2022-08-04T00:23:02.245Z,28.65
2022-08-04T00:25:30.270Z,28.64
2022-08-04T00:28:00.703Z,28.65
2022-08-04T00:30:28.580Z,28.61
2022-08-04T00:32:58.692Z,28.60
2022-08-04T00:35:29.118Z,28.58
2022-08-04T00:37:58.219Z,28.53
2022-08-04T00:41:17.863Z,28.48
2022-08-04T00:44:06.792Z,28.46
2022-08-04T00:47:34.439Z,28.40
2022-08-04T00:50:43.670Z,28.37
2022-08-04T00:53:40.569Z,28.38
2022-08-04T00:56:42.229Z,28.32
2022-08-04T01:00:14.494Z,28.19
2022-08-04T01:03:12.463Z,28.17
2022-08-04T01:06:04.286Z,28.16
2022-08-04T01:09:08.709Z,28.15
2022-08-04T01:12:10.842Z,28.16
2022-08-04T01:14:52.152Z,28.20
2022-08-04T01:17:24.190Z,28.25
2022-08-04T01:20:07.748Z,28.35
2022-08-04T01:23:46.145Z,28.34
2022-08-04T01:26:57.682Z,28.42
2022-08-04T01:29:46.888Z,28.44
2022-08-04T01:32:36.468Z,28.44
2022-08-04T01:35:22.323Z,28.37
2022-08-04T01:38:28.391Z,28.30
2022-08-04T01:41:02.734Z,28.24
2022-08-04T01:43:41.142Z,28.27
2022-08-04T01:46:13.640Z,28.31
2022-08-04T01:48:46.580Z,28.34
2022-08-04T01:51:14.827Z,28.34
2022-08-04T01:53:44.638Z,28.42
2022-08-04T01:56:13.192Z,28.44
2022-08-04T01:58:41.738Z,28.47
2022-08-04T02:01:13.129Z,28.50
2022-08-04T02:04:21.448Z,28.51
2022-08-04T02:06:43.592Z,28.52
2022-08-04T02:09:54.436Z,28.48
2022-08-04T02:12:46.841Z,28.38
2022-08-04T02:15:35.324Z,28.35
2022-08-04T02:18:04.552Z,28.25
2022-08-04T02:20:43.120Z,28.25
2022-08-04T02:23:40.903Z,28.15
2022-08-04T02:26:22.888Z,28.11
2022-08-04T02:29:13.604Z,28.06
2022-08-04T02:32:03.699Z,27.95
2022-08-04T02:35:03.403Z,27.90
2022-08-04T02:37:33.328Z,27.84
2022-08-04T02:40:06.099Z,27.84
2022-08-04T02:42:35.378Z,27.83
2022-08-04T02:45:04.856Z,27.83
2022-08-04T02:48:29.478Z,27.80
2022-08-04T02:50:28.716Z,27.74
2022-08-04T02:53:00.011Z,27.70
2022-08-04T02:55:30.216Z,27.70
2022-08-04T02:58:01.923Z,27.73
2022-08-04T03:00:30.245Z,27.70
2022-08-04T03:03:38.021Z,27.69
2022-08-04T03:06:11.463Z,27.66
2022-08-04T03:09:06.971Z,27.62
2022-08-04T03:12:33.438Z,27.54
2022-08-04T03:15:25.855Z,27.46
2022-08-04T03:18:07.516Z,27.46
2022-08-04T03:20:56.306Z,27.49
2022-08-04T03:23:47.714Z,27.50
2022-08-04T03:26:56.086Z,27.50
2022-08-04T03:29:56.276Z,27.53
2022-08-04T03:33:15.515Z,27.52
2022-08-04T03:36:26.102Z,27.50
2022-08-04T03:39:06.413Z,27.41
2022-08-04T03:42:16.061Z,27.32
2022-08-04T03:44:58.731Z,27.25
2022-08-04T03:48:07.980Z,27.18
2022-08-04T03:51:37.102Z,27.12
2022-08-04T03:54:28.974Z,27.10
2022-08-04T03:57:20.631Z,27.10
2022-08-04T04:00:13.003Z,27.08
2022-08-04T04:02:46.434Z,27.06
2022-08-04T04:05:58.696Z,27.07
2022-08-04T04:08:52.376Z,27.01
2022-08-04T04:11:56.711Z,26.99
2022-08-04T04:15:06.126Z,26.96
2022-08-04T04:17:51.360Z,26.91
2022-08-04T04:20:46.654Z,26.89
2022-08-04T04:24:05.634Z,26.77
2022-08-04T04:26:39.151Z,26.76
2022-08-04T04:29:22.676Z,26.76
2022-08-04T04:32:24.411Z,26.65
2022-08-04T04:35:11.165Z,26.69
2022-08-04T04:38:02.971Z,26.66
2022-08-04T04:41:06.452Z,26.66
2022-08-04T04:44:09.851Z,26.66
2022-08-04T04:47:07.660Z,26.67
2022-08-04T04:49:59.434Z,26.67
2022-08-04T04:52:47.687Z,26.70
2022-08-04T04:55:35.124Z,26.71
2022-08-04T04:58:04.064Z,26.67
2022-08-04T05:01:13.575Z,26.77
2022-08-04T05:04:19.992Z,26.76
2022-08-04T05:07:21.150Z,26.74
2022-08-04T05:10:20.743Z,26.74
2022-08-04T05:14:35.371Z,26.80
2022-08-04T05:16:44.063Z,26.75
2022-08-04T05:19:20.822Z,26.85
2022-08-04T05:22:00.180Z,26.87
2022-08-04T05:24:35.126Z,26.88
2022-08-04T05:27:39.835Z,26.91
2022-08-04T05:30:10.185Z,26.97
2022-08-04T05:32:55.981Z,27.02
2022-08-04T05:36:18.702Z,27.08
2022-08-04T05:38:42.386Z,27.12
2022-08-04T05:41:11.526Z,27.19
2022-08-04T05:43:42.888Z,27.24
2022-08-04T05:46:11.950Z,27.11
2022-08-04T05:48:40.567Z,27.31
2022-08-04T05:51:11.348Z,27.41
2022-08-04T05:53:44.150Z,27.48
2022-08-04T05:56:16.476Z,27.58
2022-08-04T05:58:46.435Z,27.63
2022-08-04T06:01:16.824Z,27.71
2022-08-04T06:03:47.298Z,27.74
2022-08-04T06:06:17.468Z,27.83
2022-08-04T06:08:45.154Z,27.90
2022-08-04T06:11:14.670Z,27.95
2022-08-04T06:13:56.009Z,28.08
2022-08-04T06:16:30.847Z,28.13
2022-08-04T06:20:03.596Z,28.21
2022-08-04T06:22:00.752Z,28.24
2022-08-04T06:24:30.873Z,28.38
2022-08-04T06:26:59.157Z,28.50
2022-08-04T06:29:40.681Z,28.62
2022-08-04T06:32:40.027Z,28.73
2022-08-04T06:35:10.896Z,28.92
2022-08-04T06:37:42.266Z,29.15
2022-08-04T06:40:30.961Z,29.36
2022-08-04T06:43:07.633Z,29.60
2022-08-04T06:45:39.810Z,29.76
2022-08-04T06:48:09.085Z,29.92
2022-08-04T06:51:27.185Z,30.12
2022-08-04T06:53:27.655Z,30.25
2022-08-04T06:55:58.032Z,30.42
2022-08-04T06:58:27.829Z,30.52
2022-08-04T07:01:01.724Z,30.65
2022-08-04T07:03:30.897Z,30.79
2022-08-04T07:05:59.768Z,30.91
2022-08-04T07:08:36.172Z,31.04
2022-08-04T07:11:05.565Z,31.14
2022-08-04T07:13:33.776Z,31.26
2022-08-04T07:16:02.483Z,31.34
2022-08-04T07:18:32.058Z,31.43
2022-08-04T07:21:00.225Z,31.52
2022-08-04T07:23:28.309Z,31.63
2022-08-04T07:26:12.329Z,31.75
2022-08-04T07:28:41.756Z,31.82
2022-08-04T07:31:33.736Z,31.95
2022-08-04T07:34:21.223Z,31.98
2022-08-04T07:36:55.683Z,32.14
2022-08-04T07:39:29.607Z,32.23
2022-08-04T07:42:02.179Z,32.32
2022-08-04T07:44:35.202Z,32.41
2022-08-04T07:47:06.286Z,32.51
2022-08-04T07:49:52.160Z,32.43
2022-08-04T07:52:23.624Z,32.61
2022-08-04T07:54:52.739Z,32.74
2022-08-04T07:57:41.175Z,32.82
2022-08-04T08:00:11.915Z,32.86
2022-08-04T08:02:40.012Z,32.73
2022-08-04T08:05:10.821Z,32.88
2022-08-04T08:07:50.669Z,32.96
2022-08-04T08:10:23.207Z,33.05
2022-08-04T08:12:52.727Z,33.16
2022-08-04T08:15:21.400Z,33.24
2022-08-04T08:17:58.731Z,33.31
2022-08-04T08:20:32.479Z,33.37
2022-08-04T08:23:02.837Z,33.46
2022-08-04T08:25:32.912Z,33.57
2022-08-04T08:28:04.752Z,33.64
2022-08-04T08:30:36.249Z,33.73
2022-08-04T08:33:08.024Z,33.79
2022-08-04T08:35:54.620Z,33.88
2022-08-04T08:38:55.476Z,33.94
2022-08-04T08:41:59.824Z,33.98
2022-08-04T08:44:54.845Z,34.04
2022-08-04T08:48:11.459Z,34.08
2022-08-04T08:50:59.288Z,34.12
2022-08-04T08:53:48.591Z,34.24
2022-08-04T08:56:46.529Z,34.30
2022-08-04T08:59:53.978Z,34.32
2022-08-04T09:03:09.907Z,34.37
2022-08-04T09:06:05.517Z,34.44
2022-08-04T09:09:09.773Z,34.51
2022-08-04T09:12:25.785Z,34.53
2022-08-04T09:15:16.986Z,34.63
2022-08-04T09:17:54.217Z,34.47
2022-08-04T09:21:00.164Z,34.71
2022-08-04T09:24:35.616Z,34.83
2022-08-04T09:27:28.757Z,34.86
2022-08-04T09:30:06.720Z,35.01
2022-08-04T09:33:06.799Z,35.14
2022-08-04T09:35:59.818Z,35.20
2022-08-04T09:38:51.758Z,35.26
2022-08-04T09:41:56.840Z,35.32
2022-08-04T09:45:06.363Z,35.35
2022-08-04T09:47:58.843Z,35.41
2022-08-04T09:50:41.363Z,35.51
2022-08-04T09:53:33.746Z,35.61
2022-08-04T09:56:10.656Z,35.69
2022-08-04T09:59:10.411Z,35.76
2022-08-04T10:01:39.662Z,35.80
2022-08-04T10:04:14.885Z,35.87
2022-08-04T10:07:13.734Z,35.94
2022-08-04T10:10:17.406Z,36.00
2022-08-04T10:13:09.872Z,36.02
2022-08-04T10:16:07.291Z,36.08
2022-08-04T10:18:58.666Z,36.14
2022-08-04T10:22:29.046Z,36.17
2022-08-04T10:25:40.439Z,36.24
2022-08-04T10:28:20.030Z,36.26
2022-08-04T10:30:59.187Z,36.35
2022-08-04T10:33:52.126Z,36.40
2022-08-04T10:36:28.434Z,36.46
2022-08-04T10:39:43.644Z,36.55
2022-08-04T10:42:25.314Z,36.61
2022-08-04T10:45:08.375Z,36.71
2022-08-04T10:47:53.527Z,36.75
2022-08-04T10:50:26.443Z,36.79
2022-08-04T10:53:09.832Z,36.84
2022-08-04T10:56:06.608Z,36.84
2022-08-04T10:58:50.854Z,36.92
2022-08-04T11:02:00.928Z,36.99
2022-08-04T11:05:10.831Z,37.02
2022-08-04T11:07:43.872Z,37.06
2022-08-04T11:10:15.013Z,37.11
2022-08-04T11:12:44.698Z,37.14
2022-08-04T11:15:22.364Z,37.21
2022-08-04T11:18:17.315Z,37.24
2022-08-04T11:20:57.040Z,37.28
2022-08-04T11:23:33.477Z,37.31
2022-08-04T11:26:24.383Z,37.37
2022-08-04T11:29:22.168Z,37.40
2022-08-04T11:31:52.024Z,37.40
2022-08-04T11:34:26.051Z,37.46
2022-08-04T11:37:22.004Z,37.54
2022-08-04T11:39:59.087Z,37.55
2022-08-04T11:42:37.431Z,37.61
2022-08-04T11:45:15.539Z,37.68
2022-08-04T11:48:00.654Z,37.74
2022-08-04T11:50:58.284Z,37.78
2022-08-04T11:53:36.235Z,37.79
2022-08-04T11:56:11.358Z,37.83
2022-08-04T11:58:40.685Z,37.89
2022-08-04T12:01:29.097Z,37.96
2022-08-04T12:04:28.847Z,37.97
2022-08-04T12:07:40.530Z,37.97
2022-08-04T12:10:41.110Z,38.00
2022-08-04T12:13:33.782Z,38.04
2022-08-04T12:16:54.276Z,38.07
2022-08-04T12:20:03.813Z,38.10
2022-08-04T12:22:41.575Z,37.95
2022-08-04T12:25:50.508Z,38.16
2022-08-04T12:28:59.658Z,38.24
2022-08-04T12:31:50.083Z,38.25
2022-08-04T12:34:43.191Z,38.32
2022-08-04T12:37:33.992Z,38.36
2022-08-04T12:40:28.503Z,38.43
2022-08-04T12:43:15.482Z,38.49
2022-08-04T12:45:58.429Z,38.50
2022-08-04T12:48:28.622Z,38.50
2022-08-04T12:50:59.201Z,38.51
2022-08-04T12:53:34.575Z,38.52
2022-08-04T12:56:28.725Z,38.51
2022-08-04T12:59:12.419Z,38.59
2022-08-04T13:02:07.276Z,38.58
2022-08-04T13:04:51.297Z,38.59
2022-08-04T13:07:25.631Z,38.65
2022-08-04T13:09:53.753Z,38.62
2022-08-04T13:12:32.387Z,38.71
2022-08-04T13:15:18.013Z,38.79
2022-08-04T13:18:15.298Z,38.82
2022-08-04T13:20:45.219Z,38.82
2022-08-04T13:23:21.490Z,38.87
2022-08-04T13:26:42.431Z,38.92
2022-08-04T13:28:47.038Z,38.95
2022-08-04T13:31:22.210Z,39.03
2022-08-04T13:33:54.457Z,39.08
2022-08-04T13:36:29.402Z,39.05
2022-08-04T13:39:02.476Z,39.13
2022-08-04T13:41:31.680Z,39.09
2022-08-04T13:44:17.311Z,39.14
2022-08-04T13:46:58.114Z,39.14
2022-08-04T13:49:42.370Z,39.17
2022-08-04T13:52:15.301Z,39.12
2022-08-04T13:54:47.183Z,39.18
2022-08-04T13:57:23.936Z,39.17
2022-08-04T14:00:02.217Z,39.21
2022-08-04T14:03:00.761Z,39.23
2022-08-04T14:05:35.344Z,39.21
2022-08-04T14:08:26.399Z,39.23
2022-08-04T14:10:58.256Z,39.25
2022-08-04T14:13:41.551Z,39.32
2022-08-04T14:16:21.485Z,39.38
2022-08-04T14:19:01.473Z,39.42
2022-08-04T14:21:37.292Z,39.48
2022-08-04T14:24:05.820Z,39.47
2022-08-04T14:26:35.822Z,39.51
2022-08-04T14:29:26.291Z,39.54
2022-08-04T14:32:10.784Z,39.57
2022-08-04T14:34:45.974Z,39.54
2022-08-04T14:37:20.890Z,39.57
2022-08-04T14:40:08.340Z,39.58
2022-08-04T14:42:55.312Z,39.57
2022-08-04T14:45:53.973Z,39.57
2022-08-04T14:48:23.855Z,39.55
2022-08-04T14:50:52.917Z,39.59
2022-08-04T14:53:26.604Z,39.64
2022-08-04T14:55:58.122Z,39.60
2022-08-04T14:58:39.278Z,39.72
2022-08-04T15:01:12.947Z,39.75
2022-08-04T15:03:49.957Z,39.79
2022-08-04T15:06:27.236Z,39.81
2022-08-04T15:09:00.981Z,39.82
2022-08-04T15:11:30.737Z,39.84
2022-08-04T15:13:59.822Z,39.81
2022-08-04T15:16:32.376Z,39.82
2022-08-04T15:19:02.276Z,39.79
2022-08-04T15:21:31.712Z,39.81
2022-08-04T15:24:01.348Z,39.83
2022-08-04T15:27:09.977Z,39.85
2022-08-04T15:30:00.500Z,39.89
2022-08-04T15:32:35.058Z,39.92
2022-08-04T15:35:23.264Z,39.95
2022-08-04T15:38:21.891Z,39.92
2022-08-04T15:41:23.577Z,39.91
2022-08-04T15:44:30.863Z,39.91
2022-08-04T15:47:04.893Z,39.90
2022-08-04T15:49:34.036Z,39.90
2022-08-04T15:52:12.486Z,39.93
2022-08-04T15:54:52.498Z,39.91
2022-08-04T15:58:12.782Z,39.87
2022-08-04T16:00:50.127Z,39.88
2022-08-04T16:03:58.133Z,39.90
2022-08-04T16:06:27.468Z,39.87
2022-08-04T16:09:03.823Z,39.90
2022-08-04T16:11:34.263Z,39.91
2022-08-04T16:14:02.404Z,39.92
2022-08-04T16:16:51.546Z,39.97
2022-08-04T16:19:49.223Z,39.95
2022-08-04T16:22:41.315Z,39.95
2022-08-04T16:25:11.173Z,39.91
2022-08-04T16:27:45.030Z,39.93
2022-08-04T16:30:15.342Z,39.93
2022-08-04T16:32:48.722Z,39.93
2022-08-04T16:35:28.945Z,39.95
2022-08-04T16:38:18.858Z,39.92
2022-08-04T16:40:56.779Z,39.87
2022-08-04T16:43:31.046Z,39.83
2022-08-04T16:46:01.308Z,39.85
2022-08-04T16:49:17.121Z,39.86
2022-08-04T16:51:45.335Z,39.77
2022-08-04T16:54:14.153Z,39.79
2022-08-04T16:56:43.211Z,39.78
2022-08-04T16:59:14.242Z,39.77
2022-08-04T17:01:49.462Z,39.76
2022-08-04T17:04:18.113Z,39.67
2022-08-04T17:06:47.902Z,39.65
2022-08-04T17:09:19.856Z,39.61
2022-08-04T17:11:48.880Z,39.56
2022-08-04T17:14:27.136Z,39.48
2022-08-04T17:17:02.449Z,39.42
2022-08-04T17:19:31.213Z,39.34
2022-08-04T17:22:10.139Z,39.29
2022-08-04T17:24:41.075Z,39.20
2022-08-04T17:28:06.129Z,39.09
2022-08-04T17:30:00.696Z,39.03
2022-08-04T17:32:30.344Z,38.96
2022-08-04T17:35:02.178Z,38.88
2022-08-04T17:37:40.816Z,38.81
2022-08-04T17:40:25.717Z,38.71
2022-08-04T17:44:01.221Z,38.65
2022-08-04T17:46:28.577Z,38.55
2022-08-04T17:49:16.759Z,38.49
2022-08-04T17:52:06.822Z,38.41
2022-08-04T17:54:41.068Z,38.33
2022-08-04T17:57:23.715Z,38.29
2022-08-04T18:00:01.860Z,38.19
2022-08-04T18:02:37.319Z,38.10
2022-08-04T18:05:12.299Z,38.05
2022-08-04T18:08:38.951Z,37.95
2022-08-04T18:10:56.830Z,37.86
2022-08-04T18:13:29.183Z,37.76
2022-08-04T18:16:05.377Z,37.72
2022-08-04T18:18:38.500Z,37.59
2022-08-04T18:21:07.007Z,37.51
2022-08-04T18:23:50.344Z,37.42
2022-08-04T18:26:23.701Z,37.33
2022-08-04T18:28:53.527Z,37.22
2022-08-04T18:31:21.918Z,37.08
2022-08-04T18:33:57.394Z,37.01
2022-08-04T18:36:35.480Z,36.90
2022-08-04T18:39:12.517Z,36.87
2022-08-04T18:42:01.933Z,36.77
2022-08-04T18:44:52.590Z,36.67
2022-08-04T18:47:29.755Z,36.61
2022-08-04T18:51:01.063Z,36.57
2022-08-04T18:52:47.771Z,36.47
2022-08-04T18:55:55.548Z,36.39
2022-08-04T18:58:13.632Z,36.37
2022-08-04T19:00:47.394Z,36.30
2022-08-04T19:03:22.850Z,36.24
2022-08-04T19:05:53.604Z,36.23
2022-08-04T19:08:32.810Z,36.22
2022-08-04T19:11:38.447Z,36.16
2022-08-04T19:13:58.229Z,36.10
2022-08-04T19:16:32.475Z,36.07
2022-08-04T19:19:05.561Z,36.00
2022-08-04T19:21:59.322Z,35.94
2022-08-04T19:24:32.746Z,35.86
2022-08-04T19:27:08.725Z,35.78
2022-08-04T19:29:41.058Z,35.66
2022-08-04T19:32:15.588Z,35.58
2022-08-04T19:34:47.411Z,35.51
2022-08-04T19:37:56.889Z,35.39
2022-08-04T19:40:09.770Z,35.27
2022-08-04T19:42:38.915Z,35.23
2022-08-04T19:45:15.826Z,35.10
2022-08-04T19:48:16.235Z,35.03
2022-08-04T19:50:34.008Z,34.94
2022-08-04T19:53:01.840Z,34.86
2022-08-04T19:55:39.258Z,34.78
2022-08-04T19:58:09.395Z,34.78
2022-08-04T20:00:40.052Z,34.64
2022-08-04T20:03:13.661Z,34.58
2022-08-04T20:05:50.113Z,34.52
2022-08-04T20:08:27.931Z,34.39
2022-08-04T20:10:58.126Z,34.35
2022-08-04T20:13:30.948Z,34.24
2022-08-04T20:16:29.451Z,34.22
2022-08-04T20:19:03.372Z,34.12
2022-08-04T20:21:53.469Z,34.02
2022-08-04T20:24:38.718Z,34.00
2022-08-04T20:27:21.585Z,33.97
2022-08-04T20:29:52.151Z,33.95
2022-08-04T20:32:26.846Z,33.92
2022-08-04T20:34:57.733Z,33.94
2022-08-04T20:37:56.853Z,33.87
2022-08-04T20:40:15.817Z,33.84
2022-08-04T20:42:46.514Z,33.83
2022-08-04T20:45:16.867Z,33.71
2022-08-04T20:47:54.022Z,33.56
2022-08-04T20:50:30.170Z,33.54
2022-08-04T20:52:59.075Z,33.42
2022-08-04T20:55:29.481Z,33.47
2022-08-04T20:58:02.579Z,33.43
2022-08-04T21:00:33.524Z,33.42
2022-08-04T21:03:02.915Z,33.41
2022-08-04T21:05:31.610Z,33.33
2022-08-04T21:08:00.171Z,33.30
2022-08-04T21:10:29.956Z,33.25
2022-08-04T21:12:58.866Z,33.19
2022-08-04T21:15:58.222Z,33.20
2022-08-04T21:18:16.972Z,33.15
2022-08-04T21:20:48.315Z,33.22
2022-08-04T21:23:16.577Z,33.21
2022-08-04T21:25:50.896Z,33.27
2022-08-04T21:28:20.310Z,33.26
2022-08-04T21:30:54.513Z,33.28
2022-08-04T21:33:48.178Z,33.27
2022-08-04T21:36:19.773Z,33.17
2022-08-04T21:38:51.479Z,33.20
2022-08-04T21:41:24.906Z,33.16
2022-08-04T21:43:55.977Z,33.08
2022-08-04T21:46:24.236Z,33.09
2022-08-04T21:48:52.399Z,33.11
2022-08-04T21:51:58.510Z,33.12
2022-08-04T21:54:17.051Z,33.05
2022-08-04T21:56:50.920Z,32.94
2022-08-04T21:59:23.701Z,33.02
2022-08-04T22:02:01.082Z,33.15
2022-08-04T22:04:29.669Z,32.92
2022-08-04T22:06:58.140Z,32.98
2022-08-04T22:09:37.708Z,32.98
2022-08-04T22:12:12.092Z,32.92
2022-08-04T22:14:41.670Z,32.70
2022-08-04T22:17:24.237Z,32.81
2022-08-04T22:19:56.351Z,32.82
2022-08-04T22:22:29.511Z,32.90
2022-08-04T22:25:06.260Z,32.90
2022-08-04T22:28:02.613Z,32.79
2022-08-04T22:30:37.592Z,32.77
2022-08-04T22:33:09.018Z,32.79
2022-08-04T22:35:44.196Z,32.73
2022-08-04T22:38:31.719Z,32.66
2022-08-04T22:41:09.388Z,32.67
2022-08-04T22:43:38.983Z,32.60
2022-08-04T22:46:22.333Z,32.61
2022-08-04T22:48:51.003Z,32.50
2022-08-04T22:51:21.437Z,32.45
2022-08-04T22:53:51.964Z,32.40
2022-08-04T22:56:37.185Z,32.38
2022-08-04T22:59:11.343Z,32.21
2022-08-04T23:01:58.076Z,32.30
2022-08-04T23:04:33.855Z,32.31
2022-08-04T23:07:09.047Z,32.27
2022-08-04T23:09:50.352Z,32.22
2022-08-04T23:12:26.209Z,32.11
2022-08-04T23:14:57.370Z,32.07
2022-08-04T23:17:28.040Z,32.01
2022-08-04T23:19:59.101Z,31.96
2022-08-04T23:22:41.880Z,31.95
2022-08-04T23:25:15.125Z,31.85
2022-08-04T23:27:48.137Z,31.89
2022-08-04T23:30:24.967Z,31.86
2022-08-04T23:32:58.710Z,31.84
2022-08-04T23:35:27.251Z,31.79
2022-08-04T23:37:59.767Z,31.83
2022-08-04T23:40:34.134Z,31.79
2022-08-04T23:43:17.285Z,31.75
2022-08-04T23:46:04.152Z,31.67
2022-08-04T23:48:39.069Z,31.52
2022-08-04T23:51:13.965Z,31.55
2022-08-04T23:54:02.556Z,31.46
2022-08-04T23:56:35.876Z,31.47
2022-08-04T23:59:06.227Z,31.42
